createdAt,value
2023-03-19T00:00:48.150Z,36.30
2023-03-19T00:03:15.545Z,36.28
2023-03-19T00:05:51.560Z,37.13
2023-03-19T00:08:18.792Z,33.72
2023-03-19T00:10:46.391Z,38.53
2023-03-19T00:13:13.629Z,35.35
2023-03-19T00:15:41.539Z,34.70
2023-03-19T00:18:08.889Z,40.10
2023-03-19T00:20:36.432Z,34.33
2023-03-19T00:23:04.791Z,38.58
2023-03-19T00:25:33.676Z,33.72
2023-03-19T00:28:01.568Z,36.90
2023-03-19T00:30:29.541Z,36.88
2023-03-19T00:32:57.029Z,37.65
2023-03-19T00:35:24.277Z,33.05
2023-03-19T00:37:51.507Z,35.83
2023-03-19T00:40:19.147Z,34.78
2023-03-19T00:42:46.685Z,37.05
2023-03-19T00:45:14.176Z,42.03
2023-03-19T00:47:42.191Z,34.47
2023-03-19T00:50:10.886Z,40.25
2023-03-19T00:52:38.083Z,36.53
2023-03-19T00:55:05.832Z,37.53
2023-03-19T00:57:33.267Z,38.35
2023-03-19T01:00:00.504Z,35.95
2023-03-19T01:02:27.689Z,37.83
2023-03-19T01:04:55.056Z,35.47
2023-03-19T01:07:22.572Z,38.78
2023-03-19T01:09:49.766Z,38.03
2023-03-19T01:12:19.321Z,37.00
2023-03-19T01:14:46.641Z,36.25
2023-03-19T01:17:13.809Z,35.88
2023-03-19T01:19:41.766Z,38.97
2023-03-19T01:22:09.394Z,36.05
2023-03-19T01:24:37.901Z,33.13
2023-03-19T01:27:05.855Z,42.80
2023-03-19T01:29:35.308Z,37.50
2023-03-19T01:32:13.859Z,34.67
2023-03-19T01:34:59.726Z,34.30
2023-03-19T01:37:27.417Z,35.97
2023-03-19T01:39:54.599Z,35.25
2023-03-19T01:42:21.915Z,35.95
2023-03-19T01:44:56.068Z,38.90
2023-03-19T01:47:43.409Z,32.33
2023-03-19T01:50:50.425Z,36.00
2023-03-19T01:53:54.179Z,36.90
2023-03-19T01:56:43.957Z,33.15
2023-03-19T01:59:30.624Z,35.60
2023-03-19T02:02:33.262Z,32.28
2023-03-19T02:05:15.562Z,32.95
2023-03-19T02:07:46.039Z,32.28
2023-03-19T02:10:17.011Z,33.78
2023-03-19T02:12:44.853Z,32.97
2023-03-19T02:15:12.642Z,31.60
2023-03-19T02:17:41.964Z,36.58
2023-03-19T02:20:32.995Z,32.53
2023-03-19T02:23:42.281Z,29.90
2023-03-19T02:26:22.012Z,35.00
2023-03-19T02:28:53.719Z,35.92
2023-03-19T02:31:30.120Z,28.35
2023-03-19T02:34:25.488Z,28.63
2023-03-19T02:37:07.767Z,31.65
2023-03-19T02:40:01.596Z,32.88
2023-03-19T02:42:30.221Z,34.88
2023-03-19T02:44:58.552Z,29.75
2023-03-19T02:47:27.379Z,30.50
2023-03-19T02:49:54.937Z,34.17
2023-03-19T02:52:23.024Z,32.30
2023-03-19T02:54:50.380Z,37.35
2023-03-19T02:57:18.640Z,33.65
2023-03-19T02:59:46.306Z,32.30
2023-03-19T03:02:14.123Z,33.72
2023-03-19T03:04:41.844Z,31.25
2023-03-19T03:07:09.307Z,31.90
2023-03-19T03:09:36.604Z,30.77
2023-03-19T03:12:04.802Z,31.02
2023-03-19T03:14:32.175Z,30.02
2023-03-19T03:17:00.503Z,30.58
2023-03-19T03:19:27.771Z,33.38
2023-03-19T03:21:55.403Z,31.75
2023-03-19T03:24:22.734Z,31.30
2023-03-19T03:26:49.930Z,29.02
2023-03-19T03:29:17.231Z,30.23
2023-03-19T03:31:44.684Z,35.70
2023-03-19T03:34:12.073Z,33.50
2023-03-19T03:36:39.482Z,30.55
2023-03-19T03:39:06.981Z,32.42
2023-03-19T03:41:34.208Z,33.92
2023-03-19T03:44:02.552Z,31.75
2023-03-19T03:46:34.380Z,35.78
2023-03-19T03:49:02.231Z,31.35
2023-03-19T03:51:29.438Z,33.72
2023-03-19T03:53:56.694Z,38.08
2023-03-19T03:56:24.071Z,33.88
2023-03-19T03:58:51.503Z,30.83
2023-03-19T04:01:19.821Z,31.67
2023-03-19T04:03:51.922Z,33.08
2023-03-19T04:06:22.590Z,32.63
2023-03-19T04:09:01.626Z,28.40
2023-03-19T04:13:57.676Z,33.80
2023-03-19T04:16:25.875Z,31.90
2023-03-19T04:18:53.709Z,33.50
2023-03-19T04:21:21.280Z,33.42
2023-03-19T04:23:48.489Z,32.20
2023-03-19T04:26:16.086Z,32.67
2023-03-19T04:28:43.400Z,36.22
2023-03-19T04:31:12.543Z,29.35
2023-03-19T04:33:44.477Z,31.63
2023-03-19T04:36:11.950Z,31.92
2023-03-19T04:38:39.223Z,31.02
2023-03-19T04:41:06.488Z,35.25
2023-03-19T04:43:37.122Z,34.95
2023-03-19T04:46:08.058Z,35.22
2023-03-19T04:48:36.605Z,30.40
2023-03-19T04:51:04.373Z,34.28
2023-03-19T04:53:32.980Z,34.95
2023-03-19T04:56:00.234Z,32.53
2023-03-19T04:58:27.600Z,30.85
2023-03-19T05:01:00.270Z,31.10
2023-03-19T05:03:47.600Z,29.40
2023-03-19T05:06:17.280Z,31.92
2023-03-19T05:08:44.630Z,32.05
2023-03-19T05:11:12.123Z,30.98
2023-03-19T05:13:55.229Z,34.38
2023-03-19T05:16:23.132Z,30.63
2023-03-19T05:18:50.478Z,31.20
2023-03-19T05:21:17.881Z,30.73
2023-03-19T05:23:45.601Z,29.73
2023-03-19T05:26:12.856Z,29.08
2023-03-19T05:28:58.782Z,29.63
2023-03-19T05:31:35.322Z,29.40
2023-03-19T05:34:02.656Z,28.90
2023-03-19T05:36:32.502Z,31.00
2023-03-19T05:39:14.674Z,28.95
2023-03-19T05:41:43.672Z,30.35
2023-03-19T05:44:12.884Z,30.48
2023-03-19T05:46:50.286Z,30.33
2023-03-19T05:49:19.548Z,27.10
2023-03-19T05:51:46.759Z,26.63
2023-03-19T05:54:14.203Z,35.15
2023-03-19T05:57:05.960Z,28.90
2023-03-19T05:59:49.961Z,25.30
2023-03-19T06:02:44.268Z,27.02
2023-03-19T06:05:37.761Z,29.40
2023-03-19T06:08:25.341Z,30.33
2023-03-19T06:11:16.384Z,33.13
2023-03-19T06:13:47.414Z,32.22
2023-03-19T06:16:17.310Z,29.33
2023-03-19T06:19:04.676Z,30.38
2023-03-19T06:21:32.893Z,29.52
2023-03-19T06:24:03.317Z,28.90
2023-03-19T06:26:34.934Z,26.42
2023-03-19T06:29:06.608Z,30.38
2023-03-19T06:31:34.689Z,30.40
2023-03-19T06:34:40.126Z,29.10
2023-03-19T06:37:07.787Z,26.55
2023-03-19T06:39:35.187Z,29.90
2023-03-19T06:42:02.439Z,26.48
2023-03-19T06:44:30.007Z,28.77
2023-03-19T06:46:57.328Z,25.98
2023-03-19T06:49:24.572Z,28.63
2023-03-19T06:51:51.789Z,30.60
2023-03-19T06:54:19.137Z,28.65
2023-03-19T06:56:46.962Z,26.73
2023-03-19T06:59:14.594Z,27.55
2023-03-19T07:01:42.181Z,26.63
2023-03-19T07:04:10.928Z,30.45
2023-03-19T07:06:38.489Z,31.35
2023-03-19T07:09:05.677Z,23.98
2023-03-19T07:11:35.714Z,29.95
2023-03-19T07:14:04.560Z,30.30
2023-03-19T07:16:32.005Z,27.73
2023-03-19T07:18:59.217Z,35.15
2023-03-19T07:21:26.473Z,68.70
2023-03-19T07:23:53.700Z,53.28
2023-03-19T07:26:20.995Z,34.35
2023-03-19T07:28:48.452Z,31.55
2023-03-19T07:31:16.878Z,30.98
2023-03-19T07:33:44.430Z,27.10
2023-03-19T07:36:12.289Z,31.65
2023-03-19T07:38:39.549Z,34.00
2023-03-19T07:41:06.815Z,30.75
2023-03-19T07:43:34.200Z,31.02
2023-03-19T07:46:01.617Z,32.13
2023-03-19T07:48:28.981Z,29.55
2023-03-19T07:50:56.209Z,27.75
2023-03-19T07:53:23.518Z,28.40
2023-03-19T07:55:50.763Z,34.08
2023-03-19T07:58:18.272Z,32.25
2023-03-19T08:00:46.131Z,28.73
2023-03-19T08:03:13.634Z,28.85
2023-03-19T08:05:40.897Z,31.73
2023-03-19T08:08:08.696Z,30.27
2023-03-19T08:10:38.069Z,31.58
2023-03-19T08:13:05.844Z,30.58
2023-03-19T08:15:33.627Z,29.05
2023-03-19T08:18:05.078Z,28.40
2023-03-19T08:20:33.445Z,26.30
2023-03-19T08:25:32.312Z,28.58
2023-03-19T08:28:01.285Z,25.25
2023-03-19T08:30:28.989Z,22.83
2023-03-19T08:32:56.660Z,24.00
2023-03-19T08:35:27.025Z,27.15
2023-03-19T08:37:55.977Z,23.77
2023-03-19T08:40:24.323Z,24.42
2023-03-19T08:42:51.599Z,23.95
2023-03-19T08:45:19.264Z,27.23
2023-03-19T08:47:46.589Z,23.10
2023-03-19T08:50:13.977Z,22.77
2023-03-19T08:52:41.663Z,23.95
2023-03-19T08:55:10.554Z,25.10
2023-03-19T08:57:38.117Z,28.10
2023-03-19T09:00:06.732Z,21.65
2023-03-19T09:02:34.202Z,38.10
2023-03-19T09:05:01.452Z,23.30
2023-03-19T09:07:28.785Z,25.00
2023-03-19T09:09:56.150Z,23.58
2023-03-19T09:12:23.349Z,24.17
2023-03-19T09:14:50.542Z,20.55
2023-03-19T09:17:18.254Z,24.20
2023-03-19T09:19:45.633Z,21.52
2023-03-19T09:22:12.910Z,21.58
2023-03-19T09:24:40.786Z,20.55
2023-03-19T09:27:08.472Z,23.42
2023-03-19T09:29:36.116Z,23.65
2023-03-19T09:32:04.868Z,23.05
2023-03-19T09:34:32.093Z,23.20
2023-03-19T09:36:59.360Z,24.55
2023-03-19T09:39:26.685Z,21.55
2023-03-19T09:42:40.479Z,21.70
2023-03-19T09:45:19.764Z,23.50
2023-03-19T09:47:56.426Z,23.40
2023-03-19T09:50:28.814Z,21.50
2023-03-19T09:53:19.444Z,21.85
2023-03-19T09:55:54.195Z,22.42
2023-03-19T09:58:31.975Z,23.38
2023-03-19T10:01:01.098Z,20.33
2023-03-19T10:03:48.304Z,22.10
2023-03-19T10:06:39.679Z,20.15
2023-03-19T10:09:41.104Z,20.60
2023-03-19T10:13:07.251Z,19.85
2023-03-19T10:15:37.839Z,21.20
2023-03-19T10:18:20.849Z,20.25
2023-03-19T10:21:16.510Z,24.50
2023-03-19T10:24:14.936Z,19.00
2023-03-19T10:26:43.859Z,19.30
2023-03-19T10:29:19.116Z,23.23
2023-03-19T10:32:21.589Z,20.30
2023-03-19T10:34:53.884Z,20.38
2023-03-19T10:37:30.459Z,18.00
2023-03-19T10:40:00.852Z,19.00
2023-03-19T10:43:12.873Z,19.55
2023-03-19T10:45:40.788Z,16.98
2023-03-19T10:48:17.554Z,19.75
2023-03-19T10:50:58.752Z,19.48
2023-03-19T10:53:35.906Z,21.48
2023-03-19T10:56:30.254Z,19.58
2023-03-19T10:59:06.194Z,20.27
2023-03-19T11:01:41.340Z,19.13
2023-03-19T11:04:19.730Z,17.40
2023-03-19T11:07:06.228Z,19.67
2023-03-19T11:09:38.132Z,19.95
2023-03-19T11:12:21.894Z,18.17
2023-03-19T11:14:53.025Z,18.70
2023-03-19T11:17:46.181Z,18.20
2023-03-19T11:20:22.446Z,17.38
2023-03-19T11:22:52.742Z,16.23
2023-03-19T11:25:30.897Z,17.90
2023-03-19T11:28:07.335Z,20.10
2023-03-19T11:31:20.415Z,20.38
2023-03-19T11:34:23.180Z,20.67
2023-03-19T11:37:33.693Z,17.33
2023-03-19T11:40:20.372Z,18.08
2023-03-19T11:43:41.029Z,17.88
2023-03-19T11:46:54.260Z,19.20
2023-03-19T11:49:55.411Z,17.33
2023-03-19T11:52:57.039Z,20.02
2023-03-19T11:56:15.374Z,17.70
2023-03-19T11:59:47.022Z,19.77
2023-03-19T12:03:00.257Z,17.17
2023-03-19T12:05:49.789Z,17.33
2023-03-19T12:09:02.289Z,18.75
2023-03-19T12:12:05.318Z,21.27
2023-03-19T12:15:05.476Z,23.58
2023-03-19T12:17:52.664Z,19.35
2023-03-19T12:21:15.218Z,19.77
2023-03-19T12:24:37.910Z,17.88
2023-03-19T12:27:44.249Z,19.75
2023-03-19T12:30:53.804Z,18.60
2023-03-19T12:33:43.672Z,17.85
2023-03-19T12:36:22.243Z,18.35
2023-03-19T12:39:06.670Z,17.73
2023-03-19T12:41:37.013Z,18.70
2023-03-19T12:44:21.859Z,18.65
2023-03-19T12:47:24.754Z,17.20
2023-03-19T12:50:04.828Z,20.25
2023-03-19T12:52:53.508Z,21.00
2023-03-19T12:55:36.425Z,17.02
2023-03-19T12:58:50.863Z,16.60
2023-03-19T13:01:27.825Z,19.20
2023-03-19T13:04:40.364Z,14.70
2023-03-19T13:07:40.753Z,14.38
2023-03-19T13:10:22.784Z,14.38
2023-03-19T13:12:54.177Z,16.13
2023-03-19T13:15:33.236Z,18.17
2023-03-19T13:18:32.931Z,17.80
2023-03-19T13:21:33.329Z,16.90
2023-03-19T13:24:25.939Z,22.88
2023-03-19T13:26:56.218Z,16.58
2023-03-19T13:29:30.694Z,16.83
2023-03-19T13:32:34.648Z,18.20
2023-03-19T13:35:30.953Z,17.67
2023-03-19T13:38:38.188Z,18.33
2023-03-19T13:41:06.295Z,17.67
2023-03-19T13:43:33.740Z,20.35
2023-03-19T13:46:12.039Z,17.13
2023-03-19T13:48:53.558Z,16.40
2023-03-19T13:51:21.197Z,16.52
2023-03-19T13:54:23.007Z,16.42
2023-03-19T13:57:02.362Z,15.90
2023-03-19T13:59:36.831Z,16.00
2023-03-19T14:02:26.929Z,15.48
2023-03-19T14:05:16.947Z,16.48
2023-03-19T14:07:53.183Z,16.75
2023-03-19T14:10:26.307Z,15.23
2023-03-19T14:13:09.393Z,17.92
2023-03-19T14:15:41.803Z,15.73
2023-03-19T14:18:19.411Z,14.10
2023-03-19T14:21:03.198Z,16.10
2023-03-19T14:23:42.025Z,12.40
2023-03-19T14:26:22.744Z,12.77
2023-03-19T14:29:07.367Z,15.93
2023-03-19T14:32:08.688Z,10.70
2023-03-19T14:34:42.252Z,10.85
2023-03-19T14:37:37.034Z,11.07
2023-03-19T14:40:24.182Z,11.50
2023-03-19T14:43:17.060Z,10.57
2023-03-19T14:46:27.896Z,11.02
2023-03-19T14:49:53.194Z,13.48
2023-03-19T14:52:35.063Z,12.23
2023-03-19T14:55:13.940Z,11.75
2023-03-19T14:57:43.488Z,14.98
2023-03-19T15:00:18.602Z,14.27
2023-03-19T15:02:51.750Z,13.23
2023-03-19T15:05:33.592Z,10.65
2023-03-19T15:08:12.516Z,14.13
2023-03-19T15:11:13.473Z,13.35
2023-03-19T15:14:42.901Z,12.73
2023-03-19T15:19:49.878Z,12.40
2023-03-19T15:22:26.974Z,17.25
2023-03-19T15:24:54.277Z,12.15
2023-03-19T15:27:27.666Z,12.77
2023-03-19T15:30:03.159Z,13.77
2023-03-19T15:33:04.249Z,11.45
2023-03-19T15:35:36.268Z,14.70
2023-03-19T15:38:10.034Z,12.60
2023-03-19T15:40:38.506Z,11.35
2023-03-19T15:43:06.154Z,13.65
2023-03-19T15:45:34.448Z,16.42
2023-03-19T15:51:00.108Z,11.50
2023-03-19T15:53:33.003Z,12.65
2023-03-19T15:56:02.594Z,12.50
2023-03-19T15:58:47.128Z,10.68
2023-03-19T16:01:17.990Z,12.43
2023-03-19T16:04:00.724Z,13.68
2023-03-19T16:06:35.949Z,12.45
2023-03-19T16:09:24.997Z,14.45
2023-03-19T16:11:53.337Z,14.13
2023-03-19T16:17:14.877Z,13.23
2023-03-19T16:19:57.817Z,10.63
2023-03-19T16:22:31.970Z,10.68
2023-03-19T16:25:01.880Z,12.32
2023-03-19T16:27:40.250Z,11.80
2023-03-19T16:30:29.311Z,11.63
2023-03-19T16:33:03.741Z,13.40
2023-03-19T16:35:34.649Z,11.75
2023-03-19T16:38:25.675Z,12.95
2023-03-19T16:41:32.256Z,11.38
2023-03-19T16:44:19.123Z,14.57
2023-03-19T16:46:46.438Z,15.50
2023-03-19T16:49:13.682Z,21.45
2023-03-19T16:51:40.999Z,18.65
2023-03-19T16:54:12.776Z,19.25
2023-03-19T16:56:40.173Z,22.95
2023-03-19T16:59:20.867Z,20.52
2023-03-19T17:01:48.138Z,18.50
2023-03-19T17:04:18.467Z,20.10
2023-03-19T17:06:45.869Z,25.70
2023-03-19T17:09:13.111Z,22.05
2023-03-19T17:11:42.750Z,21.20
2023-03-19T17:14:29.854Z,21.60
2023-03-19T17:16:57.343Z,26.67
2023-03-19T17:19:36.126Z,20.27
2023-03-19T17:22:03.375Z,23.35
2023-03-19T17:24:34.004Z,24.58
2023-03-19T17:27:03.988Z,24.92
2023-03-19T17:29:33.105Z,22.77
2023-03-19T17:32:02.457Z,24.13
2023-03-19T17:34:31.923Z,25.65
2023-03-19T17:37:03.115Z,23.40
2023-03-19T17:39:31.536Z,24.33
2023-03-19T17:41:59.561Z,26.75
2023-03-19T17:44:27.880Z,24.92
2023-03-19T17:49:34.696Z,25.58
2023-03-19T17:52:02.074Z,25.95
2023-03-19T17:54:29.309Z,29.50
2023-03-19T17:56:56.727Z,27.67
2023-03-19T17:59:24.416Z,24.80
2023-03-19T18:01:52.023Z,26.00
2023-03-19T18:04:21.571Z,26.83
2023-03-19T18:06:56.487Z,27.25
2023-03-19T18:09:32.847Z,26.75
2023-03-19T18:12:00.269Z,26.55
2023-03-19T18:14:27.478Z,30.00
2023-03-19T18:16:54.815Z,29.13
2023-03-19T18:19:38.038Z,25.65
2023-03-19T18:22:18.238Z,25.25
2023-03-19T18:24:46.106Z,29.95
2023-03-19T18:27:13.452Z,28.17
2023-03-19T18:29:40.819Z,28.85
2023-03-19T18:32:30.354Z,29.77
2023-03-19T18:34:57.592Z,27.50
2023-03-19T18:37:24.801Z,28.33
2023-03-19T18:39:53.050Z,28.23
2023-03-19T18:42:20.310Z,24.13
2023-03-19T18:44:47.561Z,31.42
2023-03-19T18:47:17.735Z,31.30
2023-03-19T18:49:45.067Z,32.70
2023-03-19T18:52:19.306Z,32.03
2023-03-19T18:57:15.667Z,32.00
2023-03-19T18:59:42.951Z,34.55
2023-03-19T19:02:37.206Z,28.88
2023-03-19T19:05:04.862Z,33.30
2023-03-19T19:07:32.160Z,34.10
2023-03-19T19:09:59.305Z,33.00
2023-03-19T19:12:27.141Z,30.48
2023-03-19T19:14:54.446Z,27.95
2023-03-19T19:17:29.079Z,32.70
2023-03-19T19:19:56.510Z,29.92
2023-03-19T19:22:23.759Z,28.77
2023-03-19T19:24:51.060Z,27.30
2023-03-19T19:27:25.927Z,31.00
2023-03-19T19:29:53.556Z,34.70
2023-03-19T19:32:28.661Z,28.20
2023-03-19T19:34:56.710Z,30.17
2023-03-19T19:37:24.291Z,29.90
2023-03-19T19:39:52.161Z,29.77
2023-03-19T19:42:22.072Z,35.13
2023-03-19T19:44:56.205Z,29.48
2023-03-19T19:47:23.431Z,32.42
2023-03-19T19:49:50.709Z,29.23
2023-03-19T19:52:20.025Z,34.50
2023-03-19T19:54:47.777Z,32.03
2023-03-19T19:57:24.911Z,33.15
2023-03-19T19:59:53.391Z,29.00
2023-03-19T20:02:29.178Z,29.08
2023-03-19T20:04:57.855Z,29.38
2023-03-19T20:07:25.047Z,29.00
2023-03-19T20:09:52.263Z,30.48
2023-03-19T20:12:31.138Z,32.10
2023-03-19T20:14:58.785Z,32.88
2023-03-19T20:17:27.156Z,32.05
2023-03-19T20:22:21.606Z,28.08
2023-03-19T20:24:51.279Z,28.95
2023-03-19T20:27:30.443Z,30.50
2023-03-19T20:29:57.736Z,31.27
2023-03-19T20:32:38.371Z,32.20
2023-03-19T20:37:46.681Z,29.30
2023-03-19T20:40:15.147Z,31.42
2023-03-19T20:45:22.216Z,28.65
2023-03-19T20:47:54.555Z,26.60
2023-03-19T20:50:29.816Z,31.63
2023-03-19T20:53:01.133Z,31.60
2023-03-19T20:55:36.146Z,36.03
2023-03-19T20:58:29.733Z,32.38
2023-03-19T21:00:58.681Z,32.05
2023-03-19T21:03:30.014Z,34.42
2023-03-19T21:06:06.823Z,32.00
2023-03-19T21:08:40.704Z,33.13
2023-03-19T21:11:34.040Z,35.08
2023-03-19T21:14:02.010Z,33.60
2023-03-19T21:16:30.676Z,32.30
2023-03-19T21:18:58.948Z,33.90
2023-03-19T21:21:35.520Z,32.17
2023-03-19T21:24:19.707Z,31.85
2023-03-19T21:26:47.308Z,32.58
2023-03-19T21:29:30.869Z,33.22
2023-03-19T21:31:58.391Z,32.88
2023-03-19T21:34:26.187Z,30.48
2023-03-19T21:36:53.356Z,32.75
2023-03-19T21:39:20.599Z,31.45
2023-03-19T21:41:48.205Z,31.75
2023-03-19T21:44:20.936Z,33.03
2023-03-19T21:46:48.941Z,33.75
2023-03-19T21:49:16.773Z,31.27
2023-03-19T21:51:44.176Z,31.13
2023-03-19T21:54:11.439Z,31.70
2023-03-19T21:56:45.000Z,32.22
2023-03-19T21:59:26.330Z,29.00
2023-03-19T22:01:53.621Z,28.65
2023-03-19T22:04:21.173Z,30.30
2023-03-19T22:06:49.056Z,30.23
2023-03-19T22:09:16.446Z,30.67
2023-03-19T22:11:45.901Z,31.58
2023-03-19T22:14:26.712Z,33.08
2023-03-19T22:16:56.249Z,35.13
2023-03-19T22:19:23.713Z,29.58
2023-03-19T22:21:50.995Z,32.90
2023-03-19T22:24:18.174Z,27.92
2023-03-19T22:26:49.548Z,31.50
2023-03-19T22:29:23.473Z,28.13
2023-03-19T22:31:52.964Z,30.42
2023-03-19T22:34:25.528Z,35.97
2023-03-19T22:36:52.984Z,33.10
2023-03-19T22:39:20.325Z,30.48
2023-03-19T22:41:49.311Z,30.23
2023-03-19T22:44:31.216Z,29.90
2023-03-19T22:47:01.088Z,31.85
2023-03-19T22:49:29.687Z,32.58
2023-03-19T22:51:58.062Z,31.67
2023-03-19T22:54:27.339Z,33.13
2023-03-19T22:56:54.532Z,35.97
2023-03-19T22:59:22.876Z,34.70
2023-03-19T23:01:50.104Z,41.67
2023-03-19T23:04:30.456Z,34.05
2023-03-19T23:07:00.528Z,38.75
2023-03-19T23:09:33.095Z,32.85
2023-03-19T23:12:01.391Z,38.50
2023-03-19T23:14:31.138Z,34.03
2023-03-19T23:17:04.089Z,36.33
2023-03-19T23:19:38.356Z,33.95
2023-03-19T23:22:14.227Z,34.83
2023-03-19T23:24:42.244Z,33.30
2023-03-19T23:27:26.062Z,32.72
2023-03-19T23:29:54.070Z,33.58
2023-03-19T23:32:21.963Z,36.47
2023-03-19T23:34:59.500Z,39.58
2023-03-19T23:37:28.644Z,36.28
2023-03-19T23:39:56.416Z,36.15
2023-03-19T23:42:31.955Z,37.42
2023-03-19T23:45:03.564Z,36.45
2023-03-19T23:47:31.376Z,36.05
2023-03-19T23:49:58.770Z,39.75
2023-03-19T23:52:26.067Z,41.05
2023-03-19T23:54:53.441Z,42.67
2023-03-19T23:57:24.313Z,37.47
2023-03-19T23:59:53.415Z,39.97
